Overview Statistics Trail Chart Weather Telemetry Raw packets
 

This is the latest recevied weather packets stored in our database for station/object SR3WXA. If no packets are shown the sender has not sent any weather packets the latest 10 day(s).

<< 156 157 158 159 160 161 162 >>
Time Temp. Humidity Pressure Rain* Wind** Luminosity Snow
1787930435 25° C 47% 1013.7 hPa 0 mm - 49 W/m² -
1787930324 25° C 47% 1013.7 hPa 0 mm - 49 W/m² -
1787929911 25° C 47% 1013.2 hPa 0 mm - 32 W/m² -
1787929857 25° C 47% 1013.2 hPa 0 mm - 32 W/m² -
1787929625 25° C 47% 1012.8 hPa 0 mm - 32 W/m² -
1787929557 25° C 47% 1012.8 hPa 0 mm - 32 W/m² -
1787929304 25° C 47% 1012.6 hPa 0 mm - 39 W/m² -
1787929257 25° C 47% 1012.6 hPa 0 mm - 39 W/m² -
1787929022 25° C 47% 1012.4 hPa 0 mm - 42 W/m² -
1787928957 25° C 47% 1012.4 hPa 0 mm - 42 W/m² -
1787928415 25.56° C 48% 1012.3 hPa 0 mm - 33 W/m² -
1787928358 25.56° C 48% 1012.3 hPa 0 mm - 33 W/m² -
1787928101 25.56° C 48% 1012.3 hPa 0 mm - 37 W/m² -
1787928057 25.56° C 48% 1012.3 hPa 0 mm - 37 W/m² -
1787927841 25.56° C 48% 1012.4 hPa 0 mm - 42 W/m² -
1787927757 25.56° C 48% 1012.4 hPa 0 mm - 42 W/m² -
1787927537 25.56° C 49% 1012.4 hPa 0 mm - 51 W/m² -
1787927457 25.56° C 49% 1012.4 hPa 0 mm - 51 W/m² -
1787926677 25.56° C 49% 1012.5 hPa 0 mm - 70 W/m² -
1787926529 25.56° C 49% 1012.5 hPa 0 mm - 70 W/m² -
1787925929 25.56° C 49% 1012.6 hPa 0 mm - 84 W/m² -
1787925687 25.56° C 49% 1012.5 hPa 0 mm - 76 W/m² -
1787925629 25.56° C 49% 1012.5 hPa 0 mm - 76 W/m² -
1787925459 25.56° C 49% 1012.5 hPa 0 mm - 79 W/m² -
1787925329 25.56° C 49% 1012.5 hPa 0 mm - 79 W/m² -

* Rain latest hour (hover to see other rain measurements)
** Current wind speed in m/s (hover to see current wind gust speed)